createdAt,value
2019-04-30T00:00:10.549Z,22.50
2019-04-30T00:03:06.843Z,22.40
2019-04-30T00:05:37.395Z,22.40
2019-04-30T00:08:09.844Z,22.40
2019-04-30T00:10:41.517Z,22.40
2019-04-30T00:13:17.557Z,22.50
2019-04-30T00:15:52.881Z,22.40
2019-04-30T00:18:19.540Z,22.40
2019-04-30T00:20:49.686Z,22.40
2019-04-30T00:23:22.611Z,22.40
2019-04-30T00:25:58.320Z,22.40
2019-04-30T00:28:30.168Z,22.40
2019-04-30T00:31:07.974Z,22.40
2019-04-30T00:33:38.216Z,22.40
2019-04-30T00:36:20.466Z,22.30
2019-04-30T00:38:51.728Z,22.30
2019-04-30T00:41:46.447Z,22.30
2019-04-30T00:44:15.142Z,22.30
2019-04-30T00:46:45.787Z,22.20
2019-04-30T00:49:22.999Z,22.20
2019-04-30T00:51:56.717Z,22.20
2019-04-30T00:54:55.284Z,22.20
2019-04-30T00:57:28.924Z,22.20
2019-04-30T00:59:56.137Z,22.20
2019-04-30T01:02:42.744Z,22.10
2019-04-30T01:05:16.311Z,22.10
2019-04-30T01:07:48.713Z,22.10
2019-04-30T01:10:26.762Z,22.30
2019-04-30T01:13:12.457Z,22.10
2019-04-30T01:15:58.835Z,22.10
2019-04-30T01:18:32.220Z,22.10
2019-04-30T01:21:07.895Z,22.10
2019-04-30T01:23:43.144Z,22.10
2019-04-30T01:26:11.345Z,22.10
2019-04-30T01:28:42.632Z,22.00
2019-04-30T01:31:40.806Z,22.00
2019-04-30T01:34:13.927Z,22.00
2019-04-30T01:36:43.494Z,22.00
2019-04-30T01:39:13.317Z,22.00
2019-04-30T01:41:51.116Z,22.00
2019-04-30T01:44:43.438Z,22.00
2019-04-30T01:47:13.268Z,22.00
2019-04-30T01:49:45.638Z,22.00
2019-04-30T01:52:20.523Z,22.00
2019-04-30T01:54:56.555Z,22.00
2019-04-30T01:57:53.141Z,21.90
2019-04-30T02:00:52.223Z,21.90
2019-04-30T02:03:29.377Z,21.90
2019-04-30T02:06:04.938Z,21.90
2019-04-30T02:08:39.337Z,21.80
2019-04-30T02:12:11.622Z,21.90
2019-04-30T02:14:09.409Z,21.90
2019-04-30T02:16:54.311Z,21.90
2019-04-30T02:19:41.085Z,21.90
2019-04-30T02:22:18.976Z,21.90
2019-04-30T02:24:48.752Z,21.90
2019-04-30T02:27:19.164Z,21.80
2019-04-30T02:29:50.605Z,21.90
2019-04-30T02:32:30.531Z,21.80
2019-04-30T02:35:13.234Z,21.80
2019-04-30T02:38:02.129Z,21.80
2019-04-30T02:40:42.684Z,21.80
2019-04-30T02:43:11.883Z,21.80
2019-04-30T02:45:45.581Z,21.80
2019-04-30T02:48:15.067Z,21.80
2019-04-30T02:50:45.188Z,21.80
2019-04-30T02:53:52.810Z,21.80
2019-04-30T02:56:26.597Z,21.80
2019-04-30T02:58:56.546Z,21.80
2019-04-30T03:01:26.524Z,21.80
2019-04-30T03:04:02.816Z,21.80
2019-04-30T03:06:35.992Z,21.80
2019-04-30T03:09:06.007Z,21.80
2019-04-30T03:11:35.530Z,21.80
2019-04-30T03:14:11.190Z,21.80
2019-04-30T03:16:53.191Z,21.80
2019-04-30T03:19:40.112Z,21.80
2019-04-30T03:22:20.324Z,21.80
2019-04-30T03:24:50.094Z,21.80
2019-04-30T03:27:49.981Z,21.80
2019-04-30T03:30:42.455Z,21.80
2019-04-30T03:33:35.343Z,21.80
2019-04-30T03:36:11.943Z,21.70
2019-04-30T03:38:59.855Z,21.70
2019-04-30T03:41:33.128Z,21.70
2019-04-30T03:44:17.381Z,21.70
2019-04-30T03:46:39.901Z,21.70
2019-04-30T03:49:35.685Z,21.70
2019-04-30T03:52:06.373Z,21.70
2019-04-30T03:54:36.758Z,21.70
2019-04-30T03:57:05.924Z,21.70
2019-04-30T03:59:39.483Z,21.60
2019-04-30T04:02:21.734Z,21.60
2019-04-30T04:05:21.749Z,21.60
2019-04-30T04:08:15.756Z,21.60
2019-04-30T04:11:19.924Z,21.60
2019-04-30T04:13:49.661Z,21.60
2019-04-30T04:16:19.606Z,21.60
2019-04-30T04:18:50.040Z,21.60
2019-04-30T04:21:23.777Z,21.60
2019-04-30T04:23:53.085Z,21.60
2019-04-30T04:26:22.218Z,21.60
2019-04-30T04:28:51.713Z,21.60
2019-04-30T04:31:29.784Z,21.60
2019-04-30T04:34:02.101Z,21.60
2019-04-30T04:36:50.698Z,21.60
2019-04-30T04:39:22.113Z,21.60
2019-04-30T04:41:51.769Z,21.60
2019-04-30T04:44:23.477Z,21.60
2019-04-30T04:46:53.151Z,21.60
2019-04-30T04:49:23.288Z,21.60
2019-04-30T04:51:54.633Z,21.60
2019-04-30T04:54:25.448Z,21.60
2019-04-30T04:57:10.975Z,21.60
2019-04-30T04:59:32.280Z,21.60
2019-04-30T05:02:20.645Z,21.60
2019-04-30T05:04:52.656Z,21.60
2019-04-30T05:07:22.143Z,21.50
2019-04-30T05:09:52.274Z,21.50
2019-04-30T05:12:21.394Z,21.60
2019-04-30T05:14:50.619Z,21.60
2019-04-30T05:17:22.745Z,21.60
2019-04-30T05:19:52.558Z,21.60
2019-04-30T05:22:22.271Z,21.50
2019-04-30T05:24:55.460Z,21.60
2019-04-30T05:27:24.624Z,21.50
2019-04-30T05:29:53.702Z,21.50
2019-04-30T05:32:22.649Z,21.50
2019-04-30T05:35:11.198Z,21.50
2019-04-30T05:37:40.036Z,21.50
2019-04-30T05:40:09.374Z,21.50
2019-04-30T05:43:11.236Z,21.60
2019-04-30T05:48:41.232Z,21.50
2019-04-30T05:51:22.676Z,21.50
2019-04-30T05:53:59.376Z,21.50
2019-04-30T05:56:30.468Z,21.50
2019-04-30T05:59:01.143Z,21.50
2019-04-30T06:01:30.581Z,21.50
2019-04-30T06:03:59.893Z,21.50
2019-04-30T06:06:33.630Z,21.50
2019-04-30T06:09:30.763Z,21.50
2019-04-30T06:12:11.571Z,21.50
2019-04-30T06:14:59.089Z,21.50
2019-04-30T06:20:26.515Z,21.50
2019-04-30T06:22:59.708Z,21.50
2019-04-30T06:25:45.871Z,21.50
2019-04-30T06:28:06.754Z,21.50
2019-04-30T06:30:39.805Z,21.50
2019-04-30T06:33:12.572Z,21.50
2019-04-30T06:35:49.157Z,21.50
2019-04-30T06:38:18.557Z,21.50
2019-04-30T06:40:49.629Z,21.50
2019-04-30T06:43:50.957Z,21.60
2019-04-30T06:46:20.120Z,21.60
2019-04-30T06:48:51.025Z,21.60
2019-04-30T06:51:20.523Z,21.60
2019-04-30T06:53:53.873Z,21.60
2019-04-30T06:56:23.747Z,21.60
2019-04-30T06:58:54.979Z,21.60
2019-04-30T07:01:26.453Z,21.60
2019-04-30T07:04:14.946Z,21.70
2019-04-30T07:06:51.399Z,21.70
2019-04-30T07:09:52.106Z,21.70
2019-04-30T07:12:39.051Z,21.70
2019-04-30T07:15:08.765Z,21.70
2019-04-30T07:17:40.564Z,21.70
2019-04-30T07:20:10.458Z,21.70
2019-04-30T07:23:02.570Z,21.80
2019-04-30T07:25:29.538Z,21.80
2019-04-30T07:28:10.088Z,21.80
2019-04-30T07:30:39.624Z,21.80
2019-04-30T07:33:29.637Z,21.80
2019-04-30T07:36:01.501Z,21.70
2019-04-30T07:38:51.779Z,21.80
2019-04-30T07:41:31.726Z,21.80
2019-04-30T07:44:01.089Z,21.80
2019-04-30T07:46:30.243Z,21.80
2019-04-30T07:49:02.417Z,21.80
2019-04-30T07:51:37.682Z,21.80
2019-04-30T07:54:03.333Z,21.80
2019-04-30T07:56:37.874Z,21.80
2019-04-30T07:59:06.027Z,21.80
2019-04-30T08:01:37.202Z,21.70
2019-04-30T08:04:15.630Z,21.70
2019-04-30T08:06:44.736Z,21.70
2019-04-30T08:09:21.884Z,21.70
2019-04-30T08:11:50.348Z,21.70
2019-04-30T08:14:21.111Z,21.70
2019-04-30T08:16:52.026Z,21.70
2019-04-30T08:19:21.117Z,21.70
2019-04-30T08:21:50.167Z,21.70
2019-04-30T08:24:29.157Z,21.70
2019-04-30T08:27:02.247Z,21.80
2019-04-30T08:29:31.385Z,21.70
2019-04-30T08:32:00.620Z,21.70
2019-04-30T08:34:29.784Z,21.70
2019-04-30T08:37:16.751Z,21.70
2019-04-30T08:39:37.010Z,21.70
2019-04-30T08:42:31.697Z,21.70
2019-04-30T08:44:55.123Z,21.70
2019-04-30T08:47:24.202Z,21.70
2019-04-30T08:49:53.500Z,21.70
2019-04-30T08:52:25.520Z,21.70
2019-04-30T08:54:54.964Z,21.70
2019-04-30T08:57:24.145Z,21.70
2019-04-30T09:06:54.283Z,21.60
2019-04-30T09:09:24.417Z,21.70
2019-04-30T09:11:55.749Z,21.70
2019-04-30T09:14:32.730Z,21.70
2019-04-30T09:17:04.768Z,21.70
2019-04-30T09:19:38.625Z,21.70
2019-04-30T09:22:12.379Z,21.70
2019-04-30T09:25:11.626Z,21.80
2019-04-30T09:27:46.224Z,21.80
2019-04-30T09:30:15.025Z,21.80
2019-04-30T09:32:44.089Z,21.80
2019-04-30T09:38:02.000Z,21.80
2019-04-30T09:40:32.544Z,21.80
2019-04-30T09:45:52.547Z,21.80
2019-04-30T09:48:21.811Z,21.80
2019-04-30T09:50:51.350Z,21.80
2019-04-30T09:53:22.395Z,21.80
2019-04-30T09:55:51.376Z,21.80
2019-04-30T09:58:21.170Z,21.80
2019-04-30T10:00:50.505Z,21.80
2019-04-30T10:03:44.207Z,21.80
2019-04-30T10:06:36.340Z,21.80
2019-04-30T10:08:55.716Z,21.80
2019-04-30T10:11:43.629Z,21.80
2019-04-30T10:14:12.864Z,21.80
2019-04-30T10:17:15.320Z,21.80
2019-04-30T10:19:45.160Z,21.80
2019-04-30T10:22:50.940Z,21.80
2019-04-30T10:25:20.178Z,21.80
2019-04-30T10:27:50.680Z,21.80
2019-04-30T10:30:23.424Z,21.80
2019-04-30T10:32:56.865Z,21.80
2019-04-30T10:35:25.730Z,21.80
2019-04-30T10:37:59.552Z,21.80
2019-04-30T10:40:33.318Z,21.80
2019-04-30T10:43:02.358Z,21.80
2019-04-30T10:45:34.453Z,21.80
2019-04-30T10:48:03.475Z,21.90
2019-04-30T10:50:35.040Z,21.90
2019-04-30T10:53:09.138Z,21.80
2019-04-30T10:55:38.742Z,21.90
2019-04-30T10:58:10.839Z,21.90
2019-04-30T11:00:41.871Z,21.90
2019-04-30T11:03:19.189Z,21.90
2019-04-30T11:05:41.963Z,21.90
2019-04-30T11:08:11.348Z,21.90
2019-04-30T11:10:41.999Z,21.90
2019-04-30T11:13:10.826Z,21.90
2019-04-30T11:15:39.883Z,21.90
2019-04-30T11:18:09.589Z,21.90
2019-04-30T11:20:41.826Z,21.90
2019-04-30T11:23:14.761Z,21.90
2019-04-30T11:25:44.893Z,21.90
2019-04-30T11:28:18.431Z,21.90
2019-04-30T11:30:54.709Z,21.90
2019-04-30T11:33:55.450Z,21.90
2019-04-30T11:36:46.340Z,21.90
2019-04-30T11:39:29.858Z,21.90
2019-04-30T11:42:29.069Z,21.90
2019-04-30T11:45:19.457Z,21.90
2019-04-30T11:47:53.599Z,21.90
2019-04-30T11:50:20.730Z,21.90
2019-04-30T11:53:19.671Z,22.00
2019-04-30T11:55:35.980Z,22.00
2019-04-30T11:58:21.397Z,22.00
2019-04-30T12:00:43.996Z,22.00
2019-04-30T12:03:20.907Z,22.00
2019-04-30T12:05:53.797Z,22.00
2019-04-30T12:08:29.353Z,22.00
2019-04-30T12:11:24.476Z,22.00
2019-04-30T12:13:53.958Z,22.10
2019-04-30T12:16:26.033Z,22.00
2019-04-30T12:18:55.236Z,22.10
2019-04-30T12:21:35.586Z,22.10
2019-04-30T12:24:05.295Z,22.10
2019-04-30T12:26:36.391Z,22.10
2019-04-30T12:29:11.171Z,22.10
2019-04-30T12:31:44.553Z,22.10
2019-04-30T12:34:13.731Z,22.10
2019-04-30T12:36:43.880Z,22.10
2019-04-30T12:39:21.485Z,22.10
2019-04-30T12:41:50.579Z,22.10
2019-04-30T12:44:23.475Z,22.10
2019-04-30T12:46:52.506Z,22.10
2019-04-30T12:49:28.718Z,22.10
2019-04-30T12:52:23.057Z,22.10
2019-04-30T12:55:01.419Z,22.10
2019-04-30T12:57:36.736Z,22.10
2019-04-30T13:00:10.535Z,22.10
2019-04-30T13:02:42.276Z,22.10
2019-04-30T13:11:01.974Z,22.10
2019-04-30T13:13:32.671Z,22.10
2019-04-30T13:16:02.297Z,22.10
2019-04-30T13:18:31.301Z,22.10
2019-04-30T13:21:01.203Z,22.10
2019-04-30T13:23:45.612Z,22.10
2019-04-30T13:27:19.570Z,22.10
2019-04-30T13:29:01.968Z,22.10
2019-04-30T13:31:31.065Z,22.10
2019-04-30T13:34:18.639Z,22.10
2019-04-30T13:36:49.429Z,22.10
2019-04-30T13:39:26.913Z,22.10
2019-04-30T13:44:49.401Z,22.10
2019-04-30T13:47:26.467Z,22.10
2019-04-30T13:52:50.530Z,22.10
2019-04-30T13:55:24.135Z,22.10
2019-04-30T13:57:53.737Z,22.10
2019-04-30T14:00:29.756Z,22.10
2019-04-30T14:03:09.225Z,22.10
2019-04-30T14:05:46.776Z,22.20
2019-04-30T14:08:30.602Z,22.10
2019-04-30T14:11:01.430Z,22.10
2019-04-30T14:13:33.291Z,22.10
2019-04-30T14:16:08.950Z,22.10
2019-04-30T14:18:39.795Z,22.10
2019-04-30T14:21:16.826Z,22.10
2019-04-30T14:23:49.487Z,22.10
2019-04-30T14:26:21.843Z,22.10
2019-04-30T14:28:51.050Z,22.20
2019-04-30T14:31:20.877Z,22.20
2019-04-30T14:33:50.543Z,22.20
2019-04-30T14:36:20.153Z,22.20
2019-04-30T14:38:49.177Z,22.20
2019-04-30T14:41:20.449Z,22.20
2019-04-30T14:43:55.184Z,22.20
2019-04-30T14:46:44.399Z,22.20
2019-04-30T14:49:59.152Z,22.20
2019-04-30T14:52:19.341Z,22.20
2019-04-30T14:55:01.798Z,22.20
2019-04-30T14:58:02.383Z,22.20
2019-04-30T15:01:10.001Z,22.20
2019-04-30T15:03:40.848Z,22.20
2019-04-30T15:06:10.352Z,22.20
2019-04-30T15:08:40.100Z,22.20
2019-04-30T15:11:09.204Z,22.20
2019-04-30T15:13:39.408Z,22.20
2019-04-30T15:16:08.761Z,22.20
2019-04-30T15:18:38.878Z,22.20
2019-04-30T15:21:09.917Z,22.30
2019-04-30T15:24:13.180Z,22.20
2019-04-30T15:26:42.438Z,22.20
2019-04-30T15:29:24.584Z,22.20
2019-04-30T15:31:59.412Z,22.20
2019-04-30T15:34:29.293Z,22.20
2019-04-30T15:36:59.124Z,22.20
2019-04-30T15:39:48.863Z,22.20
2019-04-30T15:42:23.542Z,22.20
2019-04-30T15:44:53.011Z,22.20
2019-04-30T15:47:23.111Z,22.20
2019-04-30T15:49:54.950Z,22.20
2019-04-30T15:55:48.406Z,22.20
2019-04-30T15:58:24.517Z,22.20
2019-04-30T16:00:56.422Z,22.20
2019-04-30T16:03:29.376Z,22.20
2019-04-30T16:05:58.628Z,22.20
2019-04-30T16:08:33.132Z,22.20
2019-04-30T16:11:21.467Z,22.20
2019-04-30T16:14:18.738Z,22.10
2019-04-30T16:17:05.718Z,22.10
2019-04-30T16:19:35.797Z,22.10
2019-04-30T16:22:07.602Z,22.10
2019-04-30T16:24:39.303Z,22.20
2019-04-30T16:27:11.361Z,22.20
2019-04-30T16:32:30.842Z,22.10
2019-04-30T16:35:04.607Z,22.10
2019-04-30T16:40:19.030Z,22.20
2019-04-30T16:42:51.642Z,22.20
2019-04-30T16:45:21.464Z,22.30
2019-04-30T16:47:52.017Z,22.20
2019-04-30T16:50:25.032Z,22.30
2019-04-30T16:52:58.174Z,22.30
2019-04-30T16:55:28.603Z,22.30
2019-04-30T16:57:59.809Z,22.30
2019-04-30T17:09:14.542Z,22.30
2019-04-30T17:12:19.597Z,22.30
2019-04-30T17:15:15.640Z,22.30
2019-04-30T17:17:45.220Z,22.20
2019-04-30T17:20:14.952Z,22.20
2019-04-30T17:22:45.229Z,22.30
2019-04-30T17:25:17.324Z,22.40
2019-04-30T17:27:48.472Z,22.40
2019-04-30T17:30:20.862Z,22.60
2019-04-30T17:32:51.310Z,22.60
2019-04-30T17:35:25.280Z,22.70
2019-04-30T17:37:56.106Z,22.70
2019-04-30T17:40:29.084Z,22.80
2019-04-30T17:42:59.686Z,22.80
2019-04-30T17:45:30.226Z,22.80
2019-04-30T17:48:03.782Z,22.80
2019-04-30T17:50:33.187Z,22.80
2019-04-30T17:53:19.060Z,22.80
2019-04-30T17:55:57.903Z,22.80
2019-04-30T17:58:34.242Z,22.80
2019-04-30T18:01:06.374Z,22.80
2019-04-30T18:03:38.818Z,22.80
2019-04-30T18:06:09.016Z,22.70
2019-04-30T18:08:39.372Z,22.70
2019-04-30T18:11:19.902Z,22.70
2019-04-30T18:13:45.321Z,22.70
2019-04-30T18:16:19.484Z,22.70
2019-04-30T18:18:59.226Z,22.70
2019-04-30T18:21:43.069Z,22.70
2019-04-30T18:24:35.074Z,22.80
2019-04-30T18:27:29.331Z,23.00
2019-04-30T18:30:03.375Z,23.10
2019-04-30T18:32:42.725Z,23.40
2019-04-30T18:35:28.622Z,23.60
2019-04-30T18:38:14.266Z,23.80
2019-04-30T18:40:53.291Z,24.00
2019-04-30T18:43:28.611Z,24.10
2019-04-30T18:46:11.088Z,24.20
2019-04-30T18:48:46.678Z,24.30
2019-04-30T18:53:53.039Z,24.30
2019-04-30T18:56:41.872Z,24.20
2019-04-30T18:59:13.879Z,24.30
2019-04-30T19:01:44.819Z,24.40
2019-04-30T19:04:22.416Z,24.40
2019-04-30T19:06:57.328Z,24.50
2019-04-30T19:09:53.448Z,24.70
2019-04-30T19:12:51.242Z,24.90
2019-04-30T19:16:11.368Z,25.00
2019-04-30T19:18:25.864Z,25.10
2019-04-30T19:21:05.890Z,25.10
2019-04-30T19:23:40.571Z,25.10
2019-04-30T19:26:14.324Z,25.10
2019-04-30T19:28:50.620Z,25.00
2019-04-30T19:31:33.995Z,25.00
2019-04-30T19:34:10.718Z,24.90
2019-04-30T19:36:42.704Z,24.80
2019-04-30T19:39:21.421Z,24.80
2019-04-30T19:41:53.775Z,24.70
2019-04-30T19:44:23.368Z,24.60
2019-04-30T19:46:59.964Z,24.60
2019-04-30T19:49:38.926Z,24.60
2019-04-30T19:52:15.695Z,24.50
2019-04-30T19:54:48.786Z,24.40
2019-04-30T19:57:26.234Z,24.40
2019-04-30T19:59:58.651Z,24.30
2019-04-30T20:02:29.458Z,24.30
2019-04-30T20:05:03.475Z,24.30
2019-04-30T20:07:36.937Z,24.30
2019-04-30T20:10:10.675Z,24.20
2019-04-30T20:12:49.277Z,24.20
2019-04-30T20:15:24.413Z,24.10
2019-04-30T20:17:58.354Z,24.10
2019-04-30T20:20:31.381Z,24.00
2019-04-30T20:23:03.975Z,23.90
2019-04-30T20:25:37.995Z,23.90
2019-04-30T20:28:15.128Z,23.80
2019-04-30T20:30:49.942Z,23.90
2019-04-30T20:33:21.945Z,23.80
2019-04-30T20:35:54.144Z,23.80
2019-04-30T20:38:55.330Z,23.70
2019-04-30T20:41:30.287Z,23.70
2019-04-30T20:44:00.870Z,23.70
2019-04-30T20:46:35.210Z,23.70
2019-04-30T20:49:22.893Z,23.70
2019-04-30T20:51:59.053Z,23.70
2019-04-30T20:54:31.328Z,23.70
2019-04-30T20:57:15.598Z,23.70
2019-04-30T20:59:45.052Z,23.70
2019-04-30T21:02:21.294Z,23.70
2019-04-30T21:05:02.910Z,23.70
2019-04-30T21:07:36.323Z,23.70
2019-04-30T21:10:10.159Z,23.70
2019-04-30T21:12:39.822Z,23.70
2019-04-30T21:15:12.285Z,23.70
2019-04-30T21:18:12.539Z,23.70
2019-04-30T21:20:46.434Z,23.70
2019-04-30T21:23:19.611Z,23.70
2019-04-30T21:25:53.665Z,23.70
2019-04-30T21:28:22.988Z,23.70
2019-04-30T21:30:53.787Z,23.70
2019-04-30T21:33:41.351Z,23.70
2019-04-30T21:36:30.499Z,23.70
2019-04-30T21:59:06.455Z,23.40
2019-04-30T22:01:36.156Z,23.40
2019-04-30T22:04:07.833Z,23.40
2019-04-30T22:06:39.477Z,23.40
2019-04-30T22:09:22.922Z,23.30
2019-04-30T22:11:53.135Z,23.40
2019-04-30T22:14:22.965Z,23.40
2019-04-30T22:16:59.281Z,23.40
2019-04-30T22:19:30.949Z,23.30
2019-04-30T22:22:04.513Z,23.30
2019-04-30T22:24:34.989Z,23.30
2019-04-30T22:27:04.538Z,23.20
2019-04-30T22:29:39.283Z,23.20
2019-04-30T22:32:09.399Z,23.20
2019-04-30T22:34:38.669Z,23.20
2019-04-30T22:37:08.531Z,23.20
2019-04-30T22:40:02.290Z,23.20
2019-04-30T22:42:33.401Z,23.10
2019-04-30T22:45:02.813Z,23.10
2019-04-30T22:47:37.715Z,23.10
2019-04-30T22:50:09.369Z,23.10
2019-04-30T22:52:40.672Z,23.10
2019-04-30T22:57:48.852Z,23.00
2019-04-30T23:00:29.972Z,23.00
2019-04-30T23:03:08.799Z,23.00
2019-04-30T23:05:40.793Z,23.00
2019-04-30T23:08:10.297Z,23.00
2019-04-30T23:10:41.335Z,23.00
2019-04-30T23:13:14.578Z,22.90
2019-04-30T23:15:53.011Z,22.90
2019-04-30T23:18:23.546Z,22.90
2019-04-30T23:21:09.076Z,22.90
2019-04-30T23:23:42.512Z,22.90
2019-04-30T23:26:12.990Z,22.90
2019-04-30T23:28:47.409Z,22.90
2019-04-30T23:31:19.186Z,22.80
2019-04-30T23:33:53.182Z,22.80
2019-04-30T23:36:25.365Z,22.80
2019-04-30T23:38:57.564Z,22.80
2019-04-30T23:41:27.682Z,22.80
2019-04-30T23:44:15.312Z,22.80
2019-04-30T23:46:52.290Z,22.80
2019-04-30T23:49:49.542Z,22.80
2019-04-30T23:52:08.854Z,22.70
2019-04-30T23:54:42.926Z,22.70
2019-04-30T23:57:20.377Z,22.70
2019-04-30T23:59:50.560Z,22.70
